Terminal Aerodrome Forecast
Issued by NWS

Home | Current Version | Previous Version | Text Only | Print | Product List | Glossary On
Versions: 1 2 3 4 5 6 7 8 9 10 11 12 13 14 15 16 17 18 19 20 21 22 23 24 25 26 27
730
FTUS41 KBUF 251130
TAFIAG
TAF
KIAG 251130Z 2512/2612 02009KT P6SM OVC015
     FM251400 02010KT P6SM OVC025
     FM252000 04008KT P6SM BKN035
     FM252200 05006KT P6SM SCT250
     FM260000 VRB03KT P6SM SCT250
     FM260400 14004KT P6SM SCT250=

USA.gov is the U.S. government's official web portal to all federal, state and local government web resources and services.